Time;durP1;ratioP1;P1;durP2;ratioP2;P2;SDS_P1;SDS_P2;PMS_P1;PMS_P2;Temp;Humidity;BMP_temperature;BMP_pressure;BME280_temperature;BME280_humidity;BME280_pressure;Samples;Min_cycle;Max_cycle;Signal;HPM_P1;HPM_P2
2023/12/03 00:01:18;;;;;;;14.43;7.10;;;;;;;;;;5007889;28;20030;-66
2023/12/03 00:04:03;;;;;;;11.55;4.53;;;;;;;;;;5015074;28;20022;-66
2023/12/03 00:06:49;;;;;;;11.18;7.35;;;;;;;;;;5014612;28;20036;-66
2023/12/03 00:09:36;;;;;;;8.90;5.63;;;;;;;;;;5014763;28;20029;-66
2023/12/03 00:12:22;;;;;;;22.23;7.97;;;;;;;;;;4996406;28;20505;-66
2023/12/03 00:15:08;;;;;;;15.45;6.85;;;;;;;;;;4998285;28;20030;-66
2023/12/03 00:17:54;;;;;;;11.90;7.03;;;;;;;;;;5012883;28;20046;-66
2023/12/03 00:20:40;;;;;;;12.95;7.45;;;;;;;;;;5022042;23;20049;-66
2023/12/03 00:23:25;;;;;;;20.33;9.02;;;;;;;;;;5013572;28;20034;-66
2023/12/03 00:26:11;;;;;;;14.68;6.05;;;;;;;;;;4999866;28;20030;-66
2023/12/03 00:28:57;;;;;;;15.98;7.28;;;;;;;;;;5013839;28;20026;-67
2023/12/03 00:31:42;;;;;;;11.27;6.72;;;;;;;;;;5012569;28;20026;-66
2023/12/03 00:34:28;;;;;;;8.30;7.30;;;;;;;;;;4995854;28;20030;-66
2023/12/03 00:37:13;;;;;;;16.15;6.13;;;;;;;;;;4998132;28;20025;-66
2023/12/03 00:39:59;;;;;;;11.85;5.85;;;;;;;;;;4999987;28;20064;-66
2023/12/03 00:42:45;;;;;;;13.40;6.70;;;;;;;;;;5006423;28;20039;-66
2023/12/03 00:45:30;;;;;;;12.32;8.55;;;;;;;;;;4982472;28;20057;-66
2023/12/03 00:48:16;;;;;;;13.82;6.80;;;;;;;;;;5002683;28;20104;-66
2023/12/03 00:51:02;;;;;;;16.50;7.57;;;;;;;;;;4995125;28;20116;-66
2023/12/03 00:53:47;;;;;;;10.50;7.93;;;;;;;;;;4985510;28;20095;-66
2023/12/03 00:56:33;;;;;;;13.88;8.00;;;;;;;;;;5013682;28;20075;-66
2023/12/03 00:59:18;;;;;;;12.68;4.82;;;;;;;;;;4987910;28;20096;-66
2023/12/03 01:02:07;;;;;;;14.30;7.32;;;;;;;;;;5011966;28;20026;-66
2023/12/03 01:04:52;;;;;;;11.15;5.47;;;;;;;;;;5012303;28;20030;-66
2023/12/03 01:07:38;;;;;;;22.40;6.47;;;;;;;;;;5009389;28;20053;-66
2023/12/03 01:10:24;;;;;;;14.13;7.38;;;;;;;;;;5012637;28;20026;-67
2023/12/03 01:13:12;;;;;;;8.93;6.30;;;;;;;;;;5012842;28;20502;-66
2023/12/03 01:15:57;;;;;;;10.52;6.50;;;;;;;;;;4999244;28;20022;-67
2023/12/03 01:18:43;;;;;;;23.13;7.47;;;;;;;;;;4999552;28;20027;-67
2023/12/03 01:21:29;;;;;;;10.75;6.25;;;;;;;;;;4993629;28;20026;-66
2023/12/03 01:24:14;;;;;;;12.73;6.43;;;;;;;;;;5013270;28;20128;-66
2023/12/03 01:27:00;;;;;;;10.70;6.93;;;;;;;;;;5005853;28;20022;-67
2023/12/03 01:29:46;;;;;;;11.77;6.05;;;;;;;;;;4992686;28;20109;-66
2023/12/03 01:32:32;;;;;;;7.05;5.45;;;;;;;;;;5007250;28;20568;-66
2023/12/03 01:35:17;;;;;;;11.73;5.50;;;;;;;;;;5013128;28;20084;-66
2023/12/03 01:38:03;;;;;;;14.18;6.43;;;;;;;;;;5010625;28;20019;-66
2023/12/03 01:40:52;;;;;;;14.32;5.68;;;;;;;;;;4994684;28;20022;-66
2023/12/03 01:43:56;;;;;;;9.70;6.70;;;;;;;;;;5003289;28;20025;-67
2023/12/03 01:46:42;;;;;;;;;;;;;;;;;;5011610;28;20057;-66
2023/12/03 01:49:27;;;;;;;15.70;5.93;;;;;;;;;;5011893;28;19936;-67
2023/12/03 01:52:13;;;;;;;13.90;5.38;;;;;;;;;;4997739;28;20533;-67
2023/12/03 01:55:00;;;;;;;11.75;7.18;;;;;;;;;;5000935;28;20042;-67
2023/12/03 01:57:46;;;;;;;10.25;6.78;;;;;;;;;;4999783;28;20040;-67
2023/12/03 02:00:32;;;;;;;9.65;5.40;;;;;;;;;;5013535;28;20033;-67
2023/12/03 02:03:18;;;;;;;12.00;6.30;;;;;;;;;;5009967;28;20026;-67
2023/12/03 02:06:07;;;;;;;12.85;5.55;;;;;;;;;;4997448;28;20111;-67
2023/12/03 02:08:53;;;;;;;10.38;5.70;;;;;;;;;;5012344;28;20026;-67
2023/12/03 02:11:39;;;;;;;10.02;5.88;;;;;;;;;;5011424;28;20076;-67
2023/12/03 02:14:24;;;;;;;11.32;5.55;;;;;;;;;;5007505;28;20557;-67
2023/12/03 02:17:10;;;;;;;12.82;5.65;;;;;;;;;;5011711;28;20029;-67
2023/12/03 02:19:56;;;;;;;12.25;6.38;;;;;;;;;;4993205;28;20035;-67
2023/12/03 02:22:58;;;;;;;14.95;7.18;;;;;;;;;;4992838;28;20050;-67
2023/12/03 02:25:44;;;;;;;14.05;5.93;;;;;;;;;;4977939;28;20030;-67
2023/12/03 02:28:29;;;;;;;11.95;5.70;;;;;;;;;;4992727;28;20052;-67
2023/12/03 02:31:15;;;;;;;13.65;7.32;;;;;;;;;;5010011;28;20021;-66
2023/12/03 02:34:09;;;;;;;9.52;6.32;;;;;;;;;;5009933;28;20030;-67
2023/12/03 02:36:55;;;;;;;12.65;5.28;;;;;;;;;;4980255;28;20034;-67
2023/12/03 02:39:41;;;;;;;15.93;9.10;;;;;;;;;;4993805;28;20396;-67
2023/12/03 02:42:26;;;;;;;16.48;7.90;;;;;;;;;;5010169;28;20022;-67
2023/12/03 02:45:12;;;;;;;12.80;7.00;;;;;;;;;;5016277;28;20057;-67
2023/12/03 02:47:58;;;;;;;17.80;6.93;;;;;;;;;;5014240;28;20025;-67
2023/12/03 02:50:43;;;;;;;16.58;8.13;;;;;;;;;;5000751;28;20032;-67
2023/12/03 02:53:29;;;;;;;12.00;6.05;;;;;;;;;;5016025;28;20034;-67
2023/12/03 02:56:16;;;;;;;9.93;7.47;;;;;;;;;;5015507;28;20049;-67
2023/12/03 02:59:01;;;;;;;14.40;7.35;;;;;;;;;;5014825;28;20080;-67
2023/12/03 03:01:47;;;;;;;14.02;7.70;;;;;;;;;;5015200;28;20026;-67
2023/12/03 03:04:33;;;;;;;14.55;7.05;;;;;;;;;;5014683;28;20495;-67
2023/12/03 03:07:19;;;;;;;14.18;6.97;;;;;;;;;;5015390;28;20026;-67
2023/12/03 03:10:05;;;;;;;12.85;6.38;;;;;;;;;;5015153;28;20084;-67
2023/12/03 03:12:50;;;;;;;14.27;7.32;;;;;;;;;;4998948;28;20026;-67
2023/12/03 03:15:36;;;;;;;14.05;6.20;;;;;;;;;;4997442;28;20038;-67
2023/12/03 03:18:22;;;;;;;17.08;6.30;;;;;;;;;;4997550;28;20106;-66
2023/12/03 03:21:08;;;;;;;12.90;5.53;;;;;;;;;;5015428;28;20026;-67
2023/12/03 03:23:53;;;;;;;15.88;7.65;;;;;;;;;;5015022;28;20056;-67
2023/12/03 03:26:39;;;;;;;10.30;4.93;;;;;;;;;;5010242;28;20068;-66
2023/12/03 03:29:25;;;;;;;13.88;5.88;;;;;;;;;;5012091;28;20036;-68
2023/12/03 03:32:11;;;;;;;11.95;6.72;;;;;;;;;;5012538;28;20026;-67
2023/12/03 03:34:56;;;;;;;13.50;7.95;;;;;;;;;;5014762;28;20566;-67
2023/12/03 03:37:42;;;;;;;15.75;6.65;;;;;;;;;;4999710;28;20100;-67
2023/12/03 03:40:27;;;;;;;12.30;7.15;;;;;;;;;;5014987;28;20022;-67
2023/12/03 03:43:14;;;;;;;15.98;7.90;;;;;;;;;;5000307;28;20028;-67
2023/12/03 03:46:00;;;;;;;13.68;7.35;;;;;;;;;;5014859;28;20022;-67
2023/12/03 03:48:45;;;;;;;12.57;5.55;;;;;;;;;;5013479;28;20033;-67
2023/12/03 03:51:31;;;;;;;15.20;7.35;;;;;;;;;;5013167;28;20117;-67
2023/12/03 03:54:17;;;;;;;10.40;5.75;;;;;;;;;;5009125;28;20045;-67
2023/12/03 03:57:02;;;;;;;12.32;6.32;;;;;;;;;;5014374;28;20041;-67
2023/12/03 03:59:48;;;;;;;12.48;6.50;;;;;;;;;;5014328;28;20032;-67
2023/12/03 04:02:34;;;;;;;10.75;5.45;;;;;;;;;;5001970;28;20018;-67
2023/12/03 04:05:19;;;;;;;12.45;6.68;;;;;;;;;;5013286;28;20398;-67
2023/12/03 04:08:05;;;;;;;10.25;6.15;;;;;;;;;;4980208;28;20183;-67
2023/12/03 04:10:51;;;;;;;17.85;5.75;;;;;;;;;;4998632;28;20060;-67
2023/12/03 04:13:37;;;;;;;16.83;6.15;;;;;;;;;;5013287;28;20120;-67
2023/12/03 04:16:23;;;;;;;18.90;8.27;;;;;;;;;;5014579;28;20108;-67
2023/12/03 04:19:10;;;;;;;15.00;7.78;;;;;;;;;;5014140;28;20030;-67
2023/12/03 04:21:56;;;;;;;16.60;7.88;;;;;;;;;;4998423;28;20034;-67
2023/12/03 04:24:44;;;;;;;14.68;6.40;;;;;;;;;;5014747;28;20500;-67
2023/12/03 04:27:30;;;;;;;18.08;7.05;;;;;;;;;;5000005;28;20030;-67
2023/12/03 04:30:16;;;;;;;15.40;7.93;;;;;;;;;;4998932;28;20028;-66
2023/12/03 04:33:02;;;;;;;15.95;6.65;;;;;;;;;;5010587;28;20041;-66
2023/12/03 04:35:47;;;;;;;13.55;7.18;;;;;;;;;;5014549;28;20562;-67
2023/12/03 04:38:33;;;;;;;12.63;6.22;;;;;;;;;;5014133;28;20085;-67
2023/12/03 04:41:19;;;;;;;15.70;7.25;;;;;;;;;;4998371;28;20025;-67
2023/12/03 04:44:04;;;;;;;14.30;7.25;;;;;;;;;;4999552;28;20030;-67
2023/12/03 04:46:50;;;;;;;17.65;7.00;;;;;;;;;;5005098;28;20035;-67
2023/12/03 04:49:36;;;;;;;13.30;7.20;;;;;;;;;;4980249;28;20030;-67
2023/12/03 04:52:21;;;;;;;20.15;8.15;;;;;;;;;;4999520;28;20045;-67
2023/12/03 04:55:08;;;;;;;17.42;6.97;;;;;;;;;;5013301;28;20032;-67
2023/12/03 04:57:53;;;;;;;14.45;7.88;;;;;;;;;;5013158;28;20030;-67
2023/12/03 05:00:39;;;;;;;13.88;6.70;;;;;;;;;;5013524;28;20018;-67
2023/12/03 05:03:25;;;;;;;11.63;6.18;;;;;;;;;;5012162;28;20056;-67
2023/12/03 05:06:10;;;;;;;17.23;7.72;;;;;;;;;;5012868;28;20026;-67
2023/12/03 05:08:56;;;;;;;10.25;5.18;;;;;;;;;;5012641;28;20036;-66
2023/12/03 05:11:42;;;;;;;11.63;5.72;;;;;;;;;;5011893;28;20029;-67
2023/12/03 05:14:28;;;;;;;14.93;6.63;;;;;;;;;;4999084;28;20041;-66
2023/12/03 05:17:13;;;;;;;14.25;6.53;;;;;;;;;;4998452;28;20030;-67
2023/12/03 05:19:59;;;;;;;17.65;7.32;;;;;;;;;;5013663;28;20045;-67
2023/12/03 05:22:44;;;;;;;14.85;7.05;;;;;;;;;;5013115;28;20025;-67
2023/12/03 05:25:30;;;;;;;11.90;5.50;;;;;;;;;;5012699;28;20025;-66
2023/12/03 05:28:16;;;;;;;12.77;7.03;;;;;;;;;;4999049;28;20154;-67
2023/12/03 05:31:03;;;;;;;14.48;6.82;;;;;;;;;;5012757;28;20093;-67
2023/12/03 05:33:49;;;;;;;22.67;9.85;;;;;;;;;;4992841;28;20038;-67
2023/12/03 05:36:35;;;;;;;14.70;7.13;;;;;;;;;;5011934;28;20030;-67
2023/12/03 05:39:21;;;;;;;14.48;6.43;;;;;;;;;;5012163;28;20033;-67
2023/12/03 05:42:07;;;;;;;23.52;8.07;;;;;;;;;;5011790;28;20080;-67
2023/12/03 05:44:52;;;;;;;15.70;8.65;;;;;;;;;;5013001;28;20025;-67
2023/12/03 05:47:38;;;;;;;14.73;6.07;;;;;;;;;;5012273;28;20329;-67
2023/12/03 05:50:24;;;;;;;21.13;9.13;;;;;;;;;;4997250;28;20080;-67
2023/12/03 05:53:10;;;;;;;18.02;8.20;;;;;;;;;;4972122;28;20034;-67
2023/12/03 05:55:55;;;;;;;29.45;7.65;;;;;;;;;;4998425;28;20040;-67
2023/12/03 05:58:41;;;;;;;21.88;9.13;;;;;;;;;;5011156;28;20041;-67
2023/12/03 06:01:27;;;;;;;16.60;7.95;;;;;;;;;;5009011;28;20029;-67
2023/12/03 06:04:12;;;;;;;24.60;8.30;;;;;;;;;;5012312;28;20060;-67
2023/12/03 06:06:58;;;;;;;16.88;6.95;;;;;;;;;;5012462;28;20495;-67
2023/12/03 06:09:44;;;;;;;24.15;8.43;;;;;;;;;;5012004;28;20080;-67
2023/12/03 06:12:29;;;;;;;16.30;8.18;;;;;;;;;;4997323;28;20093;-67
2023/12/03 06:15:15;;;;;;;16.70;6.93;;;;;;;;;;5011558;28;20049;-67
2023/12/03 06:18:01;;;;;;;12.60;6.43;;;;;;;;;;5001556;28;20092;-67
2023/12/03 06:20:46;;;;;;;30.27;7.72;;;;;;;;;;5012349;28;20068;-67
2023/12/03 06:23:32;;;;;;;24.58;7.25;;;;;;;;;;5011012;28;20036;-67
2023/12/03 06:26:18;;;;;;;19.25;7.63;;;;;;;;;;5035474;23;20049;-69
2023/12/03 06:29:03;;;;;;;19.20;8.02;;;;;;;;;;5013276;28;20030;-69
2023/12/03 06:31:49;;;;;;;15.73;8.85;;;;;;;;;;5005168;28;20057;-69
2023/12/03 06:34:35;;;;;;;15.38;7.55;;;;;;;;;;5010331;28;20485;-68
2023/12/03 06:37:20;;;;;;;18.52;6.68;;;;;;;;;;4978972;28;20032;-68
2023/12/03 06:40:07;;;;;;;9.10;6.03;;;;;;;;;;4995879;28;20049;-69
2023/12/03 06:42:52;;;;;;;14.05;6.43;;;;;;;;;;4995481;28;20049;-69
2023/12/03 06:45:38;;;;;;;11.55;5.60;;;;;;;;;;5012521;28;20030;-69
2023/12/03 06:48:24;;;;;;;14.95;8.43;;;;;;;;;;4996684;28;20022;-69
2023/12/03 06:51:10;;;;;;;22.83;6.45;;;;;;;;;;5003044;28;20511;-69
2023/12/03 06:53:56;;;;;;;9.65;6.47;;;;;;;;;;5013804;28;20518;-69
2023/12/03 06:56:42;;;;;;;21.77;5.97;;;;;;;;;;4998758;28;20026;-69
2023/12/03 06:59:27;;;;;;;14.50;5.70;;;;;;;;;;5003603;28;20029;-69
2023/12/03 07:02:13;;;;;;;14.13;5.85;;;;;;;;;;5009330;28;20465;-69
2023/12/03 07:04:59;;;;;;;17.05;7.45;;;;;;;;;;5006628;28;20131;-69
2023/12/03 07:07:48;;;;;;;12.75;6.38;;;;;;;;;;4999206;28;20395;-68
2023/12/03 07:10:34;;;;;;;12.13;6.15;;;;;;;;;;5012682;28;20029;-69
2023/12/03 07:13:19;;;;;;;16.88;7.25;;;;;;;;;;5012965;28;20411;-69
2023/12/03 07:16:07;;;;;;;13.35;5.75;;;;;;;;;;4998061;28;20038;-69
2023/12/03 07:18:52;;;;;;;18.35;8.57;;;;;;;;;;5012636;28;20038;-69
2023/12/03 07:21:38;;;;;;;22.58;6.85;;;;;;;;;;5012189;28;20029;-69
2023/12/03 07:24:23;;;;;;;11.35;6.90;;;;;;;;;;5011364;28;20026;-69
2023/12/03 07:27:09;;;;;;;11.35;6.40;;;;;;;;;;5013213;28;20061;-69
2023/12/03 07:29:56;;;;;;;9.05;5.03;;;;;;;;;;5014977;28;20466;-69
2023/12/03 07:32:41;;;;;;;15.50;5.55;;;;;;;;;;4994146;28;20092;-69
2023/12/03 07:35:27;;;;;;;18.35;7.85;;;;;;;;;;5005609;28;20025;-69
2023/12/03 07:38:13;;;;;;;8.95;5.80;;;;;;;;;;4999139;28;20041;-69
2023/12/03 07:40:59;;;;;;;16.90;7.70;;;;;;;;;;5009452;28;20403;-69
2023/12/03 07:43:45;;;;;;;11.30;5.57;;;;;;;;;;5014330;28;20033;-69
2023/12/03 07:46:32;;;;;;;14.75;5.75;;;;;;;;;;4996459;28;20109;-69
2023/12/03 07:49:18;;;;;;;15.13;5.65;;;;;;;;;;5014554;28;20048;-69
2023/12/03 07:52:04;;;;;;;15.90;6.43;;;;;;;;;;5014471;28;20030;-69
2023/12/03 07:54:50;;;;;;;17.02;6.72;;;;;;;;;;4986843;28;20026;-68
2023/12/03 07:57:36;;;;;;;11.65;5.20;;;;;;;;;;5013666;28;20033;-68
2023/12/03 08:00:21;;;;;;;17.50;6.65;;;;;;;;;;5013289;28;20038;-68
2023/12/03 08:03:07;;;;;;;12.95;5.90;;;;;;;;;;5007532;28;22387;-68
2023/12/03 08:05:52;;;;;;;13.00;5.70;;;;;;;;;;4983378;28;20515;-68
2023/12/03 08:08:38;;;;;;;12.38;8.13;;;;;;;;;;4999184;28;20394;-68
2023/12/03 08:11:24;;;;;;;14.93;7.30;;;;;;;;;;5001153;28;20041;-68
2023/12/03 08:14:09;;;;;;;17.95;8.23;;;;;;;;;;5010530;28;20029;-68
2023/12/03 08:16:55;;;;;;;20.20;7.30;;;;;;;;;;4998779;28;20034;-71
2023/12/03 08:19:41;;;;;;;22.45;7.75;;;;;;;;;;5006929;28;20026;-69
2023/12/03 08:22:26;;;;;;;20.58;7.50;;;;;;;;;;4999247;28;20022;-69
2023/12/03 08:25:12;;;;;;;12.63;6.05;;;;;;;;;;5007175;28;20435;-69
2023/12/03 08:27:58;;;;;;;11.50;5.32;;;;;;;;;;5012705;28;20038;-69
2023/12/03 08:30:43;;;;;;;11.50;6.20;;;;;;;;;;5009012;28;20041;-69
2023/12/03 08:33:29;;;;;;;19.40;8.13;;;;;;;;;;5005730;28;20030;-69
2023/12/03 08:36:17;;;;;;;15.55;6.88;;;;;;;;;;5006982;28;20137;-69
2023/12/03 08:39:07;;;;;;;13.90;6.97;;;;;;;;;;4998865;28;20021;-69
2023/12/03 08:41:53;;;;;;;11.15;7.20;;;;;;;;;;5006499;28;20037;-69
2023/12/03 08:44:39;;;;;;;18.10;8.00;;;;;;;;;;5013296;28;20026;-68
2023/12/03 08:47:24;;;;;;;16.77;7.25;;;;;;;;;;5010922;28;20030;-68
2023/12/03 08:50:10;;;;;;;15.30;8.05;;;;;;;;;;5010708;28;20034;-69
2023/12/03 08:52:56;;;;;;;16.08;7.63;;;;;;;;;;4994560;28;20026;-68
2023/12/03 08:55:42;;;;;;;17.60;7.30;;;;;;;;;;5013077;28;20491;-69
2023/12/03 08:58:28;;;;;;;17.58;6.60;;;;;;;;;;5011201;28;20136;-69
2023/12/03 09:01:14;;;;;;;23.20;9.13;;;;;;;;;;5010204;28;20119;-68
2023/12/03 09:03:59;;;;;;;21.70;8.77;;;;;;;;;;4999106;28;20056;-68
2023/12/03 09:06:46;;;;;;;19.88;7.50;;;;;;;;;;5013252;28;20030;-68
2023/12/03 09:09:31;;;;;;;18.38;6.90;;;;;;;;;;5013880;28;20105;-68
2023/12/03 09:12:17;;;;;;;19.77;7.53;;;;;;;;;;5011077;28;20029;-68
2023/12/03 09:15:03;;;;;;;20.05;9.15;;;;;;;;;;5012781;28;20026;-67
2023/12/03 09:17:49;;;;;;;21.13;7.60;;;;;;;;;;4994558;28;20100;-68
2023/12/03 09:20:34;;;;;;;18.75;7.72;;;;;;;;;;5007853;28;20029;-68
2023/12/03 09:23:20;;;;;;;20.25;8.02;;;;;;;;;;5012981;28;20467;-68
2023/12/03 09:26:06;;;;;;;20.55;7.75;;;;;;;;;;5013272;28;20034;-68
2023/12/03 09:28:51;;;;;;;26.30;8.75;;;;;;;;;;5012532;28;20034;-69
2023/12/03 09:31:41;;;;;;;23.45;8.07;;;;;;;;;;5008635;28;20033;-68
2023/12/03 09:34:26;;;;;;;20.55;7.28;;;;;;;;;;4994486;28;20019;-68
2023/12/03 09:37:13;;;;;;;24.10;8.50;;;;;;;;;;5011473;28;20025;-68
2023/12/03 09:39:59;;;;;;;21.50;8.05;;;;;;;;;;5011984;28;20490;-69
2023/12/03 09:42:46;;;;;;;21.50;8.23;;;;;;;;;;4998850;28;20026;-69
2023/12/03 09:45:32;;;;;;;21.08;8.05;;;;;;;;;;4997115;28;20033;-68
2023/12/03 09:48:20;;;;;;;21.67;7.20;;;;;;;;;;4997803;28;20028;-69
2023/12/03 09:51:07;;;;;;;15.50;6.70;;;;;;;;;;4998255;28;20029;-69
2023/12/03 09:53:56;;;;;;;17.88;7.18;;;;;;;;;;5013587;28;20029;-69
2023/12/03 09:56:43;;;;;;;18.50;7.53;;;;;;;;;;5012102;28;20057;-69
2023/12/03 09:59:31;;;;;;;19.83;8.52;;;;;;;;;;4998605;28;20395;-69
2023/12/03 10:02:18;;;;;;;19.25;6.93;;;;;;;;;;4997659;28;20034;-69
2023/12/03 10:05:04;;;;;;;21.33;7.25;;;;;;;;;;5013559;28;20033;-68
2023/12/03 10:07:50;;;;;;;13.50;6.10;;;;;;;;;;5012452;28;20065;-68
2023/12/03 10:10:39;;;;;;;26.13;8.27;;;;;;;;;;5012566;28;20104;-68
2023/12/03 10:13:26;;;;;;;14.88;6.10;;;;;;;;;;4998696;28;20123;-68
2023/12/03 10:16:12;;;;;;;18.30;7.18;;;;;;;;;;5003838;28;20034;-68
2023/12/03 10:18:58;;;;;;;20.40;8.30;;;;;;;;;;4998371;28;20480;-69
2023/12/03 10:21:48;;;;;;;17.17;7.15;;;;;;;;;;5012129;28;20475;-68
2023/12/03 10:24:49;;;;;;;17.80;8.25;;;;;;;;;;4998672;28;20414;-68
2023/12/03 10:27:35;;;;;;;23.13;8.98;;;;;;;;;;5004662;28;20026;-66
2023/12/03 10:30:21;;;;;;;21.00;8.20;;;;;;;;;;5012004;28;20112;-66
2023/12/03 10:33:11;;;;;;;27.95;8.98;;;;;;;;;;5013772;28;20022;-69
2023/12/03 10:36:02;;;;;;;19.48;8.98;;;;;;;;;;5009493;28;20392;-66
2023/12/03 10:38:48;;;;;;;20.50;8.20;;;;;;;;;;5011647;28;20030;-66
2023/12/03 10:41:33;;;;;;;23.65;8.52;;;;;;;;;;5011491;28;20060;-68
2023/12/03 10:44:27;;;;;;;20.08;8.00;;;;;;;;;;4997761;28;20479;-66
2023/12/03 10:47:14;;;;;;;21.00;8.35;;;;;;;;;;4997148;28;20038;-69
2023/12/03 10:50:01;;;;;;;20.27;8.27;;;;;;;;;;4997698;28;20084;-69
2023/12/03 10:52:48;;;;;;;21.27;8.00;;;;;;;;;;4998028;28;20029;-67
2023/12/03 10:55:34;;;;;;;21.90;8.40;;;;;;;;;;4996898;28;20077;-67
2023/12/03 10:58:20;;;;;;;17.98;7.05;;;;;;;;;;5006510;28;20033;-69
2023/12/03 11:01:21;;;;;;;19.52;8.55;;;;;;;;;;5013158;28;20487;-69
2023/12/03 11:04:08;;;;;;;17.52;7.68;;;;;;;;;;5015395;28;20456;-69
2023/12/03 11:06:55;;;;;;;17.85;7.88;;;;;;;;;;4996842;28;20511;-68
2023/12/03 11:09:42;;;;;;;16.63;7.53;;;;;;;;;;5001654;28;20026;-68
2023/12/03 11:12:27;;;;;;;16.67;7.90;;;;;;;;;;5001945;28;20069;-68
2023/12/03 11:15:14;;;;;;;18.45;7.68;;;;;;;;;;5015979;28;20026;-66
2023/12/03 11:18:00;;;;;;;22.35;7.90;;;;;;;;;;5015611;28;20378;-66
2023/12/03 11:20:47;;;;;;;17.35;8.10;;;;;;;;;;4995324;28;20364;-66
2023/12/03 11:24:02;;;;;;;25.95;9.60;;;;;;;;;;5015678;28;20514;-69
2023/12/03 11:26:47;;;;;;;21.33;7.50;;;;;;;;;;5009443;28;20041;-68
2023/12/03 11:29:53;;;;;;;19.88;8.05;;;;;;;;;;5016142;28;20121;-69
2023/12/03 11:32:39;;;;;;;22.52;8.65;;;;;;;;;;5008316;28;20058;-69
2023/12/03 11:35:25;;;;;;;24.63;9.50;;;;;;;;;;5014482;28;20025;-69
2023/12/03 11:38:17;;;;;;;25.85;9.43;;;;;;;;;;5015896;28;20033;-69
2023/12/03 11:41:03;;;;;;;27.95;8.55;;;;;;;;;;5000770;28;20111;-68
2023/12/03 11:43:48;;;;;;;24.67;9.43;;;;;;;;;;5010939;28;20033;-68
2023/12/03 11:46:44;;;;;;;29.35;9.55;;;;;;;;;;5009890;28;20458;-68
2023/12/03 11:49:33;;;;;;;31.33;10.85;;;;;;;;;;5001231;28;20033;-68
2023/12/03 11:52:18;;;;;;;23.73;9.70;;;;;;;;;;5000154;28;20041;-68
2023/12/03 11:55:09;;;;;;;30.83;10.25;;;;;;;;;;4986390;28;20037;-69
2023/12/03 11:57:55;;;;;;;27.60;10.30;;;;;;;;;;4996836;28;20061;-69
2023/12/03 12:00:41;;;;;;;35.65;11.30;;;;;;;;;;5014430;28;20030;-69
2023/12/03 12:03:27;;;;;;;28.77;10.73;;;;;;;;;;5000140;28;20128;-69
2023/12/03 12:06:13;;;;;;;29.92;10.65;;;;;;;;;;5014199;28;20029;-67
2023/12/03 12:08:58;;;;;;;34.45;12.68;;;;;;;;;;5015276;28;20055;-68
2023/12/03 12:11:44;;;;;;;38.45;11.68;;;;;;;;;;5014013;28;20118;-68
2023/12/03 12:14:30;;;;;;;38.78;10.88;;;;;;;;;;4984414;28;20030;-68
2023/12/03 12:17:15;;;;;;;22.55;8.18;;;;;;;;;;5011837;28;20033;-69
2023/12/03 12:20:01;;;;;;;34.65;11.63;;;;;;;;;;5014901;28;20434;-68
2023/12/03 12:22:47;;;;;;;40.38;11.15;;;;;;;;;;4995828;28;20022;-68
2023/12/03 12:25:32;;;;;;;38.13;11.80;;;;;;;;;;5013131;28;20111;-68
2023/12/03 12:28:18;;;;;;;37.58;12.27;;;;;;;;;;5118728;23;20056;-68
2023/12/03 12:31:05;;;;;;;36.63;10.73;;;;;;;;;;5031820;28;20021;-69
2023/12/03 12:33:51;;;;;;;34.20;12.00;;;;;;;;;;5000199;28;20029;-68
2023/12/03 12:36:36;;;;;;;42.67;12.75;;;;;;;;;;5014452;28;20425;-68
2023/12/03 12:39:26;;;;;;;41.20;12.15;;;;;;;;;;5019342;28;20072;-68
2023/12/03 12:42:24;;;;;;;34.78;12.43;;;;;;;;;;5020849;28;20017;-68
2023/12/03 12:45:26;;;;;;;37.25;11.90;;;;;;;;;;5024551;28;20517;-69
2023/12/03 12:48:30;;;;;;;39.72;12.02;;;;;;;;;;5033570;28;20030;-69
2023/12/03 12:51:23;;;;;;;38.80;12.98;;;;;;;;;;5036609;28;20025;-68
2023/12/03 12:54:08;;;;;;;46.63;11.65;;;;;;;;;;5031731;28;20041;-69
2023/12/03 12:56:54;;;;;;;30.75;10.30;;;;;;;;;;5018456;28;20041;-68
2023/12/03 12:59:40;;;;;;;39.40;12.38;;;;;;;;;;5034367;28;20069;-69
2023/12/03 13:02:26;;;;;;;36.10;11.98;;;;;;;;;;5033040;28;20029;-68
2023/12/03 13:05:13;;;;;;;33.03;11.65;;;;;;;;;;5037007;28;20025;-68
2023/12/03 13:07:59;;;;;;;34.45;11.38;;;;;;;;;;5040147;28;20033;-69
2023/12/03 13:10:44;;;;;;;33.90;12.60;;;;;;;;;;5047905;28;20518;-69
2023/12/03 13:13:30;;;;;;;36.30;12.73;;;;;;;;;;5019220;28;20038;-69
2023/12/03 13:16:16;;;;;;;28.23;11.55;;;;;;;;;;5044921;28;20116;-69
2023/12/03 13:19:01;;;;;;;30.95;11.63;;;;;;;;;;5047686;28;20518;-68
2023/12/03 13:21:47;;;;;;;35.90;12.93;;;;;;;;;;5044007;28;20043;-68
2023/12/03 13:24:33;;;;;;;37.58;12.18;;;;;;;;;;5052366;28;20509;-68
2023/12/03 13:27:18;;;;;;;29.40;9.18;;;;;;;;;;5034829;28;20040;-68
2023/12/03 13:30:05;;;;;;;30.45;11.80;;;;;;;;;;5045521;28;20399;-67
2023/12/03 13:32:50;;;;;;;36.38;11.15;;;;;;;;;;5010618;28;20025;-68
2023/12/03 13:35:36;;;;;;;36.38;12.43;;;;;;;;;;5033339;28;20036;-68
2023/12/03 13:38:22;;;;;;;31.90;10.23;;;;;;;;;;5031706;28;20057;-68
2023/12/03 13:41:08;;;;;;;32.53;10.02;;;;;;;;;;5019207;28;20024;-68
2023/12/03 13:43:53;;;;;;;31.55;10.25;;;;;;;;;;5034380;28;20029;-68
2023/12/03 13:46:39;;;;;;;26.83;10.15;;;;;;;;;;5032542;28;20025;-68
2023/12/03 13:49:25;;;;;;;34.15;11.02;;;;;;;;;;5018011;28;20451;-68
2023/12/03 13:52:11;;;;;;;28.92;10.77;;;;;;;;;;5017636;28;20018;-68
2023/12/03 13:54:58;;;;;;;20.52;9.98;;;;;;;;;;5033606;28;20048;-68
2023/12/03 13:57:44;;;;;;;29.45;11.07;;;;;;;;;;5033199;28;20028;-68
2023/12/03 14:00:30;;;;;;;23.98;8.98;;;;;;;;;;5018356;28;20479;-68
2023/12/03 14:03:17;;;;;;;24.50;11.15;;;;;;;;;;5032666;28;20021;-68
2023/12/03 14:06:05;;;;;;;26.27;10.20;;;;;;;;;;5018775;28;20017;-68
2023/12/03 14:08:51;;;;;;;30.38;9.70;;;;;;;;;;5033050;28;20022;-68
2023/12/03 14:11:37;;;;;;;24.23;9.32;;;;;;;;;;5032723;28;20021;-67
2023/12/03 14:14:23;;;;;;;24.50;9.65;;;;;;;;;;5033577;28;20086;-68
2023/12/03 14:17:09;;;;;;;33.95;10.30;;;;;;;;;;5050759;28;20055;-67
2023/12/03 14:19:56;;;;;;;24.88;10.43;;;;;;;;;;5038362;28;20402;-68
2023/12/03 14:22:41;;;;;;;22.75;9.82;;;;;;;;;;5052173;28;20029;-67
2023/12/03 14:25:27;;;;;;;22.17;9.10;;;;;;;;;;5052114;28;20056;-67
2023/12/03 14:28:13;;;;;;;19.63;8.93;;;;;;;;;;5051487;28;20032;-67
2023/12/03 14:30:58;;;;;;;29.83;10.75;;;;;;;;;;5038488;28;20035;-68
2023/12/03 14:33:44;;;;;;;30.08;10.90;;;;;;;;;;5038659;28;20406;-69
2023/12/03 14:36:30;;;;;;;26.95;10.80;;;;;;;;;;5049770;28;20087;-68
2023/12/03 14:39:16;;;;;;;32.33;9.90;;;;;;;;;;5055158;28;20401;-68
2023/12/03 14:42:02;;;;;;;28.20;9.73;;;;;;;;;;5041961;28;20028;-68
2023/12/03 14:44:48;;;;;;;34.78;9.73;;;;;;;;;;5057402;28;20036;-70
2023/12/03 14:47:34;;;;;;;31.95;11.75;;;;;;;;;;5056244;28;20397;-70
2023/12/03 14:50:20;;;;;;;31.52;11.00;;;;;;;;;;5056935;28;20040;-70
2023/12/03 14:53:05;;;;;;;26.48;9.05;;;;;;;;;;5056368;28;20071;-70
2023/12/03 14:55:51;;;;;;;27.50;10.50;;;;;;;;;;5042772;28;20119;-71
2023/12/03 14:58:36;;;;;;;35.95;10.80;;;;;;;;;;5041592;28;20054;-70
2023/12/03 15:01:23;;;;;;;27.65;10.23;;;;;;;;;;5042464;28;20071;-70
2023/12/03 15:04:09;;;;;;;27.98;10.07;;;;;;;;;;5042319;28;20021;-69
2023/12/03 15:06:55;;;;;;;32.30;10.63;;;;;;;;;;5055503;28;20025;-70
2023/12/03 15:09:41;;;;;;;26.75;11.00;;;;;;;;;;5055367;28;20031;-70
2023/12/03 15:12:28;;;;;;;34.95;10.93;;;;;;;;;;5055338;28;20044;-70
2023/12/03 15:15:14;;;;;;;26.38;11.32;;;;;;;;;;5054832;28;20074;-70
2023/12/03 15:17:59;;;;;;;25.05;10.82;;;;;;;;;;5055545;28;20043;-70
2023/12/03 15:20:45;;;;;;;40.30;12.30;;;;;;;;;;5054713;28;20037;-70
2023/12/03 15:23:31;;;;;;;33.50;10.65;;;;;;;;;;5055491;28;20017;-70
2023/12/03 15:26:16;;;;;;;34.03;11.93;;;;;;;;;;5056252;28;20017;-70
2023/12/03 15:29:02;;;;;;;26.30;10.52;;;;;;;;;;5056892;28;20409;-70
2023/12/03 15:31:48;;;;;;;28.95;11.07;;;;;;;;;;5054547;28;20139;-69
2023/12/03 15:34:33;;;;;;;32.75;11.15;;;;;;;;;;5055298;28;20078;-70
2023/12/03 15:37:19;;;;;;;33.72;12.73;;;;;;;;;;5054774;28;20021;-70
2023/12/03 15:40:05;;;;;;;30.67;10.90;;;;;;;;;;5055269;28;20548;-70
2023/12/03 15:42:54;;;;;;;26.23;10.77;;;;;;;;;;5040063;28;20096;-70
2023/12/03 15:45:42;;;;;;;30.98;11.88;;;;;;;;;;5055058;28;20114;-70
2023/12/03 15:48:28;;;;;;;32.28;10.43;;;;;;;;;;5040625;28;20029;-70
2023/12/03 15:51:15;;;;;;;30.80;11.43;;;;;;;;;;5040013;28;20098;-71
2023/12/03 15:54:00;;;;;;;21.25;8.88;;;;;;;;;;5056188;28;20021;-70
2023/12/03 15:56:46;;;;;;;30.80;11.63;;;;;;;;;;5040687;28;20383;-70
2023/12/03 15:59:34;;;;;;;24.40;10.23;;;;;;;;;;5054910;28;20029;-71
2023/12/03 16:02:20;;;;;;;25.63;10.90;;;;;;;;;;5039907;28;20444;-70
2023/12/03 16:05:06;;;;;;;28.20;9.98;;;;;;;;;;5053456;28;20052;-70
2023/12/03 16:07:51;;;;;;;29.20;10.88;;;;;;;;;;5039676;28;20031;-71
2023/12/03 16:10:44;;;;;;;29.92;11.57;;;;;;;;;;5037985;28;20566;-70
2023/12/03 16:13:32;;;;;;;36.20;10.75;;;;;;;;;;5039006;28;20025;-71
2023/12/03 16:16:18;;;;;;;25.42;9.20;;;;;;;;;;5054231;28;20062;-71
2023/12/03 16:19:03;;;;;;;30.30;10.88;;;;;;;;;;5053710;28;20075;-71
2023/12/03 16:21:50;;;;;;;26.55;10.43;;;;;;;;;;5054252;28;20024;-70